M I D A S
Marine Information and Data Acquisition System
Tripno 388 of the Zeeleeuw from 2002-09-30 08:13:18 to 2002-09-30 14:28:29
Back to CruiseResearch ActivitiesStationsMapUnderway DataData graphs

EquipmentUnitsComments
TimeDGPSUTC
LatitudeDGPSDM.mWGS84
LongitudeDGPSDM.mWGS84
SpeedMeteo Stationm/sRelative wind speed
DirectionMeteo StationdegRelative wind direction
TemperatureMeteo Stationdeg CelciusAir temperature
PressureMeteo StationPaAtmospheric pressure
HumidityMeteo Station%Relative humidity
Missing or incorrect values are displayed as -999
Metereological data collected by the RV Zeeleeuw from 2002-09-30 08:13:18 to 2002-09-30 14:28:29
Time Latitude Longitude Speed Direction Temperature Pressure Humidity
2002-09-30 08:14 51°13.622 2°56.008 6.1 218 11.6 102510 72
2002-09-30 08:15 51°13.576 2°56.09 7.7 217 11.6 102510 72
2002-09-30 08:16 51°13.541 2°56.19 4.8 186 11.7 102510 72
2002-09-30 08:17 51°13.552 2°56.266 3.8 129 11.7 102520 72
2002-09-30 08:18 51°13.556 2°56.274 4.5 112 11.8 102520 72
2002-09-30 08:19 51°13.542 2°56.263 1.5 74 11.8 102520 72
2002-09-30 08:20 51°13.548 2°56.264 2.9 83 11.9 102520 72
2002-09-30 08:21 51°13.531 2°56.265 2.2 92 12 102520 72
2002-09-30 08:22 51°13.535 2°56.258 2.6 28 12 102520 72
2002-09-30 08:23 51°13.531 2°56.259 2.1 22 12.1 102520 72
2002-09-30 08:24 51°13.545 2°56.218 1.2 346 12.2 102520 71
2002-09-30 08:25 51°13.567 2°56.125 2.5 290 12.3 102520 71
2002-09-30 08:26 51°13.601 2°56.014 0.5 303 12.3 102520 71
2002-09-30 08:27 51°13.645 2°55.899 1 331 12.4 102520 71
2002-09-30 08:28 51°13.694 2°55.782 0.9 298 12.4 102520 70
2002-09-30 08:29 51°13.761 2°55.686 0.2 189 12.5 102520 70
2002-09-30 08:30 51°13.854 2°55.613 0.9 92 12.8 102520 71
2002-09-30 08:31 51°13.958 2°55.534 0.4 126 13 102520 71
2002-09-30 08:32 51°14.057 2°55.462 0.2 115 13.3 102510 71
2002-09-30 08:33 51°14.159 2°55.385 1.4 65 13.5 102510 71
2002-09-30 08:34 51°14.263 2°55.263 0.9 345 13.6 102510 69
2002-09-30 08:35 51°14.347 2°55.083 1.9 290 13.4 102500 67
2002-09-30 08:36 51°14.434 2°54.856 3.8 304 13.3 102500 67
2002-09-30 08:37 51°14.459 2°54.583 8.1 293 13.2 102490 66
2002-09-30 08:38 51°14.401 2°54.31 11.7 278 13.2 102480 67
2002-09-30 08:39 51°14.304 2°54.03 11.8 268 13.1 102460 67
2002-09-30 08:40 51°14.204 2°53.731 12.2 274 13 102460 67
2002-09-30 08:41 51°14.087 2°53.443 11.3 265 13 102470 69
2002-09-30 08:42 51°13.973 2°53.136 10.3 274 12.9 102470 69
2002-09-30 08:43 51°13.868 2°52.832 10.5 266 12.8 102470 70
2002-09-30 08:44 51°13.762 2°52.522 10.9 272 12.8 102470 71
2002-09-30 08:45 51°13.657 2°52.203 12.1 271 12.8 102470 71
2002-09-30 08:46 51°13.544 2°51.879 10.8 273 12.7 102470 71
2002-09-30 08:47 51°13.433 2°51.556 11.1 274 12.7 102470 71
2002-09-30 08:48 51°13.323 2°51.227 11.8 270 12.7 102470 72
2002-09-30 08:49 51°13.21 2°50.902 10.7 272 12.7 102460 72
2002-09-30 08:50 51°13.098 2°50.574 11 271 12.7 102470 72
2002-09-30 08:51 51°12.988 2°50.246 11.4 274 12.7 102470 72
2002-09-30 08:52 51°12.875 2°49.92 10.7 277 12.7 102470 72
2002-09-30 08:53 51°12.756 2°49.572 10.9 272 12.7 102470 72
2002-09-30 08:54 51°12.655 2°49.236 10.8 273 12.8 102460 73
2002-09-30 08:55 51°12.561 2°48.895 10.8 274 12.8 102460 73
2002-09-30 08:56 51°12.463 2°48.558 10.8 274 12.8 102460 73
2002-09-30 08:57 51°12.367 2°48.218 10.4 271 12.9 102460 73
2002-09-30 08:58 51°12.27 2°47.883 11.5 272 12.9 102460 72
2002-09-30 08:59 51°12.169 2°47.532 11.3 276 12.9 102460 72
2002-09-30 09:00 51°12.072 2°47.192 12.6 275 13 102460 72
2002-09-30 09:01 51°11.978 2°46.85 11.8 276 13 102460 72
2002-09-30 09:02 51°11.89 2°46.504 11.3 272 13.1 102460 72
2002-09-30 09:03 51°11.802 2°46.157 10.8 278 13.1 102470 72
2002-09-30 09:04 51°11.712 2°45.81 11.2 281 13.2 102460 72
2002-09-30 09:05 51°11.635 2°45.455 10.5 278 13.2 102470 72
2002-09-30 09:06 51°11.559 2°45.098 11.2 275 13.3 102460 72
2002-09-30 09:07 51°11.48 2°44.743 12.2 277 13.4 102470 71
2002-09-30 09:08 51°11.401 2°44.394 4.4 278 13.4 102460 70
2002-09-30 09:09 51°11.321 2°44.032 10.4 271 13.5 102460 71
2002-09-30 09:10 51°11.241 2°43.675 10.2 272 13.5 102460 71
2002-09-30 09:11 51°11.16 2°43.318 11.6 273 13.5 102460 71
2002-09-30 09:12 51°11.083 2°42.96 12.3 276 13.5 102450 70
2002-09-30 09:13 51°11.005 2°42.61 12 281 13.5 102450 69
2002-09-30 09:14 51°10.929 2°42.246 11.1 272 13.6 102450 70
2002-09-30 09:15 51°10.848 2°41.89 11.1 281 13.6 102450 69
2002-09-30 09:16 51°10.77 2°41.538 10.5 277 13.7 102450 70
2002-09-30 09:17 51°10.694 2°41.17 11 278 13.7 102450 69
2002-09-30 09:18 51°10.614 2°40.812 11.3 279 13.7 102450 70
2002-09-30 09:19 51°10.537 2°40.454 10.2 281 13.7 102450 70
2002-09-30 09:20 51°10.462 2°40.096 11.1 276 13.7 102450 70
2002-09-30 09:21 51°10.381 2°39.741 10.8 280 13.7 102450 71
2002-09-30 09:22 51°10.307 2°39.382 10.8 277 13.7 102450 71
2002-09-30 09:23 51°10.232 2°39.03 9.8 286 13.7 102440 70
2002-09-30 09:24 51°10.204 2°38.656 11 271 13.7 102450 70
2002-09-30 09:25 51°10.048 2°38.391 12.6 260 13.7 102430 69
2002-09-30 09:26 51°9.92 2°38.225 10.1 261 13.8 102440 69
2002-09-30 09:27 51°9.838 2°38.176 8.6 265 13.8 102450 69
2002-09-30 09:28 51°9.788 2°38.134 7.9 276 13.8 102440 68
2002-09-30 09:29 51°9.757 2°38.09 7.2 284 13.7 102450 69
2002-09-30 09:30 51°9.735 2°38.047 7.2 298 13.8 102450 69
2002-09-30 09:31 51°9.722 2°38.003 7.5 298 13.9 102450 69
2002-09-30 09:32 51°9.713 2°37.962 6.8 301 14 102450 70
2002-09-30 09:33 51°9.707 2°37.924 5 301 14 102450 69
2002-09-30 09:34 51°9.702 2°37.886 3.9 302 14.1 102450 70
2002-09-30 09:35 51°9.698 2°37.851 4.3 301 14.1 102450 69
2002-09-30 09:36 51°9.696 2°37.816 3 326 14.2 102450 70
2002-09-30 09:37 51°9.693 2°37.782 3 325 14.2 102450 69
2002-09-30 09:38 51°9.691 2°37.749 2.6 308 14.2 102450 69
2002-09-30 09:39 51°9.689 2°37.716 3.6 303 14.2 102450 69
2002-09-30 09:40 51°9.688 2°37.684 3.2 306 14.3 102450 69
2002-09-30 09:41 51°9.687 2°37.652 2.9 310 14.2 102450 68
2002-09-30 09:42 51°9.686 2°37.62 3.7 319 14.3 102450 70
2002-09-30 09:43 51°9.686 2°37.589 3.1 308 14.2 102450 69
2002-09-30 09:44 51°9.685 2°37.558 2.7 328 14.2 102450 69
2002-09-30 09:45 51°9.684 2°37.527 2.7 319 14.4 102450 69
2002-09-30 09:46 51°9.678 2°37.476 5.2 306 14.4 102450 69
2002-09-30 09:47 51°9.662 2°37.402 5.5 304 14.4 102450 69
2002-09-30 09:48 51°9.651 2°37.313 2.1 321 14.4 102450 68
2002-09-30 09:49 51°9.654 2°37.231 4.6 353 14.4 102450 68
2002-09-30 09:50 51°9.675 2°37.162 4.1 18 14.4 102450 69
2002-09-30 09:51 51°9.705 2°37.1 5.2 42 14.4 102450 69
2002-09-30 09:52 51°9.743 2°37.049 4.8 55 14.3 102450 69
2002-09-30 09:53 51°9.786 2°37.014 4.8 81 14.4 102450 68
2002-09-30 09:54 51°9.831 2°37.002 5.4 111 14.3 102440 68
2002-09-30 09:55 51°9.87 2°37.017 5.3 130 14.3 102440 69
2002-09-30 09:56 51°9.9 2°37.047 5.5 144 14.3 102440 70
2002-09-30 09:57 51°9.923 2°37.087 6 148 14.2 102440 68
2002-09-30 09:58 51°9.941 2°37.134 5.8 171 14.2 102430 69
2002-09-30 09:59 51°9.951 2°37.18 7 171 14.3 102440 70
2002-09-30 10:00 51°9.957 2°37.233 6.8 177 14.2 102430 69
2002-09-30 10:01 51°9.958 2°37.281 6.2 178 14.2 102430 67
2002-09-30 10:02 51°9.953 2°37.328 5.9 193 14.2 102430 67
2002-09-30 10:03 51°9.943 2°37.377 6.5 196 14.2 102430 67
2002-09-30 10:04 51°9.93 2°37.421 7.3 213 14.3 102420 68
2002-09-30 10:05 51°9.912 2°37.463 8.2 215 14.4 102420 69
2002-09-30 10:06 51°9.889 2°37.498 7.1 223 14.5 102420 68
2002-09-30 10:07 51°9.861 2°37.527 6.7 227 14.5 102420 67
2002-09-30 10:08 51°9.828 2°37.547 8.1 234 14.7 102420 68
2002-09-30 10:09 51°9.791 2°37.554 6.6 243 14.7 102420 67
2002-09-30 10:10 51°9.749 2°37.543 7.9 257 14.7 102420 66
2002-09-30 10:11 51°9.71 2°37.512 8.2 274 14.7 102420 66
2002-09-30 10:12 51°9.678 2°37.468 7.3 293 14.7 102420 65
2002-09-30 10:13 51°9.651 2°37.42 7.8 292 14.8 102420 66
2002-09-30 10:14 51°9.634 2°37.369 5.1 306 14.8 102420 66
2002-09-30 10:15 51°9.623 2°37.319 4 303 14.9 102420 68
2002-09-30 10:16 51°9.616 2°37.272 3.6 300 14.8 102420 65
2002-09-30 10:17 51°9.611 2°37.226 2.6 322 15 102430 67
2002-09-30 10:18 51°9.606 2°37.183 2.1 319 14.9 102430 66
2002-09-30 10:19 51°9.602 2°37.141 3.1 307 14.9 102420 66
2002-09-30 10:20 51°9.6 2°37.101 1.8 317 14.9 102420 66
2002-09-30 10:21 51°9.597 2°37.061 2.3 302 14.9 102430 66
2002-09-30 10:22 51°9.595 2°37.022 2.1 325 15 102430 66
2002-09-30 10:23 51°9.594 2°36.984 2 338 15 102430 65
2002-09-30 10:24 51°9.591 2°36.948 2.1 316 15.1 102430 65
2002-09-30 10:25 51°9.59 2°36.912 1.3 329 15.1 102420 64
2002-09-30 10:26 51°9.589 2°36.876 2.3 310 15.1 102420 64
2002-09-30 10:27 51°9.588 2°36.84 1.9 334 15.1 102420 64
2002-09-30 10:28 51°9.588 2°36.804 2.3 316 15.2 102420 65
2002-09-30 10:29 51°9.588 2°36.767 1.7 337 15.1 102420 65
2002-09-30 10:30 51°9.587 2°36.73 1 320 15.1 102420 65
2002-09-30 10:31 51°9.586 2°36.694 0.8 325 15.2 102420 66
2002-09-30 10:32 51°9.585 2°36.658 0.7 326 15.2 102420 65
2002-09-30 10:33 51°9.585 2°36.62 1.4 316 15.2 102420 63
2002-09-30 10:34 51°9.586 2°36.583 1.3 320 15.3 102410 64
2002-09-30 10:35 51°9.586 2°36.547 1.5 326 15.3 102420 63
2002-09-30 10:36 51°9.585 2°36.51 0.9 320 15.4 102420 64
2002-09-30 10:37 51°9.585 2°36.474 0.7 316 15.4 102410 64
2002-09-30 10:38 51°9.585 2°36.438 0.9 316 15.4 102420 63
2002-09-30 10:39 51°9.585 2°36.4 0.5 308 15.4 102420 63
2002-09-30 10:40 51°9.584 2°36.364 1.5 316 15.5 102410 64
2002-09-30 10:41 51°9.582 2°36.315 0.8 319 15.5 102410 63
2002-09-30 10:42 51°9.579 2°36.267 1 324 15.5 102410 65
2002-09-30 10:43 51°9.574 2°36.21 2.1 313 15.5 102410 65
2002-09-30 10:44 51°9.569 2°36.128 0.4 338 15.5 102420 63
2002-09-30 10:45 51°9.576 2°36.041 3.7 6 15.5 102420 64
2002-09-30 10:46 51°9.595 2°35.961 3.1 16 15.5 102410 63
2002-09-30 10:47 51°9.62 2°35.897 3.6 39 15.5 102420 63
2002-09-30 10:48 51°9.647 2°35.844 3.2 47 15.5 102410 63
2002-09-30 10:49 51°9.677 2°35.801 3.6 78 15.7 102410 64
2002-09-30 10:50 51°9.708 2°35.769 3.9 101 15.6 102410 64
2002-09-30 10:51 51°9.74 2°35.749 4.1 110 15.6 102410 64
2002-09-30 10:52 51°9.77 2°35.742 3.9 127 15.6 102410 66
2002-09-30 10:53 51°9.798 2°35.747 5.1 135 15.6 102410 65
2002-09-30 10:54 51°9.827 2°35.772 4.9 150 15.6 102410 62
2002-09-30 10:55 51°9.849 2°35.813 5.2 176 15.6 102410 64
2002-09-30 10:56 51°9.861 2°35.861 4.6 183 15.6 102400 68
2002-09-30 10:57 51°9.864 2°35.913 4.9 198 15.5 102410 68
2002-09-30 10:58 51°9.859 2°35.967 5.5 197 15.4 102400 67
2002-09-30 10:59 51°9.846 2°36.019 5.9 207 15.4 102410 67
2002-09-30 11:00 51°9.824 2°36.068 6.1 219 15.4 102410 65
2002-09-30 11:01 51°9.794 2°36.107 6.3 225 15.5 102410 65
2002-09-30 11:02 51°9.755 2°36.133 6.1 233 15.7 102410 64
2002-09-30 11:03 51°9.707 2°36.142 5.7 244 15.8 102410 63
2002-09-30 11:04 51°9.656 2°36.128 5.9 265 16 102400 65
2002-09-30 11:05 51°9.611 2°36.09 5.6 270 16 102400 62
2002-09-30 11:06 51°9.574 2°36.038 4.8 279 16.1 102400 62
2002-09-30 11:07 51°9.543 2°35.976 5 294 16.3 102400 62
2002-09-30 11:08 51°9.522 2°35.911 3.3 316 16.3 102400 61
2002-09-30 11:09 51°9.515 2°35.843 0.1 337 16.3 102400 62
2002-09-30 11:10 51°9.517 2°35.777 1.9 357 16.3 102400 63
2002-09-30 11:11 51°9.523 2°35.719 3.7 14 16.4 102400 64
2002-09-30 11:12 51°9.53 2°35.668 3.3 21 16.3 102400 61
2002-09-30 11:13 51°9.548 2°35.607 3 30 16.3 102400 61
2002-09-30 11:14 51°9.58 2°35.546 2.2 58 16.3 102400 62
2002-09-30 11:15 51°9.624 2°35.502 2.6 90 16.4 102400 59
2002-09-30 11:16 51°9.672 2°35.486 3.3 119 16.5 102390 61
2002-09-30 11:17 51°9.712 2°35.495 3.2 139 16.5 102390 62
2002-09-30 11:18 51°9.739 2°35.521 3.9 166 16.4 102390 63
2002-09-30 11:19 51°9.759 2°35.562 3.7 163 16.3 102390 63
2002-09-30 11:20 51°9.77 2°35.614 4.7 178 16.2 102380 64
2002-09-30 11:21 51°9.771 2°35.67 3.9 183 16.1 102380 59
2002-09-30 11:22 51°9.765 2°35.727 4.9 184 16.2 102380 62
2002-09-30 11:23 51°9.753 2°35.783 5.5 191 16.2 102370 62
2002-09-30 11:24 51°9.737 2°35.836 6.3 202 16.2 102380 59
2002-09-30 11:25 51°9.713 2°35.887 5.5 211 16.3 102370 61
2002-09-30 11:26 51°9.685 2°35.934 5 218 16.3 102370 61
2002-09-30 11:27 51°9.653 2°35.976 6.5 214 16.3 102370 61
2002-09-30 11:28 51°9.614 2°36.009 6.4 226 16.5 102370 62
2002-09-30 11:29 51°9.567 2°36.022 5.5 241 16.6 102370 58
2002-09-30 11:30 51°9.516 2°36.01 5.1 256 16.8 102370 59
2002-09-30 11:31 51°9.463 2°35.969 4.9 278 16.9 102370 58
2002-09-30 11:32 51°9.417 2°35.904 6.6 275 17 102360 60
2002-09-30 11:33 51°9.382 2°35.821 5.9 297 17 102360 58
2002-09-30 11:34 51°9.358 2°35.735 3.6 303 17 102360 60
2002-09-30 11:35 51°9.343 2°35.655 2.7 303 17 102360 59
2002-09-30 11:36 51°9.333 2°35.576 1.8 316 17 102370 58
2002-09-30 11:37 51°9.331 2°35.5 1 346 17 102370 59
2002-09-30 11:38 51°9.342 2°35.432 2.8 15 17 102370 58
2002-09-30 11:39 51°9.361 2°35.373 3.4 29 17 102370 58
2002-09-30 11:40 51°9.384 2°35.323 2.5 47 17 102370 58
2002-09-30 11:41 51°9.411 2°35.284 3.7 61 17.1 102370 56
2002-09-30 11:42 51°9.439 2°35.257 4 83 17.2 102360 56
2002-09-30 11:43 51°9.468 2°35.243 3.2 103 17.2 102360 57
2002-09-30 11:44 51°9.495 2°35.241 4.4 137 17.1 102360 59
2002-09-30 11:45 51°9.518 2°35.248 4.5 127 17.1 102360 59
2002-09-30 11:46 51°9.539 2°35.26 4.6 128 17 102360 56
2002-09-30 11:47 51°9.558 2°35.277 5.1 134 17 102360 56
2002-09-30 11:48 51°9.574 2°35.297 4.7 137 17.1 102360 57
2002-09-30 11:49 51°9.587 2°35.321 4.9 153 17.1 102360 56
2002-09-30 11:50 51°9.597 2°35.349 5.3 157 17.1 102350 54
2002-09-30 11:51 51°9.603 2°35.384 5.2 173 17.1 102350 55
2002-09-30 11:52 51°9.606 2°35.422 5.7 177 17.1 102350 59
2002-09-30 11:53 51°9.606 2°35.462 4.8 172 17 102350 56
2002-09-30 11:54 51°9.601 2°35.503 4.4 187 17 102350 56
2002-09-30 11:55 51°9.592 2°35.543 4.5 183 17 102350 60
2002-09-30 11:56 51°9.581 2°35.568 5.9 198 17 102350 61
2002-09-30 11:57 51°9.57 2°35.585 5.8 200 16.9 102340 56
2002-09-30 11:58 51°9.56 2°35.59 5.2 197 16.9 102340 55
2002-09-30 11:59 51°9.553 2°35.587 4.9 190 17 102340 59
2002-09-30 12:00 51°9.548 2°35.581 4.4 187 17 102340 56
2002-09-30 12:01 51°9.545 2°35.57 4.9 188 17 102340 59
2002-09-30 12:02 51°9.543 2°35.559 5.4 169 17 102340 57
2002-09-30 12:03 51°9.54 2°35.543 4.4 177 17 102340 58
2002-09-30 12:04 51°9.539 2°35.528 5.4 180 17 102330 58
2002-09-30 12:05 51°9.537 2°35.512 5.5 182 17 102340 56
2002-09-30 12:06 51°9.537 2°35.495 5.6 169 17.1 102330 53
2002-09-30 12:07 51°9.538 2°35.476 5 169 17.1 102340 59
2002-09-30 12:08 51°9.537 2°35.458 5.6 166 17.1 102330 56
2002-09-30 12:09 51°9.537 2°35.439 5.3 165 17.1 102330 54
2002-09-30 12:10 51°9.537 2°35.422 4.9 165 17.1 102330 56
2002-09-30 12:12 51°9.537 2°35.402 4.6 168 17.1 102330 57
2002-09-30 12:13 51°9.534 2°35.382 3.8 163 17.2 102330 58
2002-09-30 12:14 51°9.533 2°35.364 4.3 156 17.1 102330 60
2002-09-30 12:15 51°9.531 2°35.348 4.8 149 17.1 102330 61
2002-09-30 12:16 51°9.53 2°35.332 4.7 159 17.1 102330 57
2002-09-30 12:17 51°9.528 2°35.316 4.7 161 17.2 102330 58
2002-09-30 12:18 51°9.526 2°35.3 4.3 159 17.2 102330 58
2002-09-30 12:19 51°9.525 2°35.283 4.5 159 17.2 102330 57
2002-09-30 12:20 51°9.523 2°35.267 5.1 166 17.3 102330 59
2002-09-30 12:21 51°9.521 2°35.25 4.5 165 17.2 102330 56
2002-09-30 12:22 51°9.52 2°35.233 4.6 163 17.2 102320 57
2002-09-30 12:23 51°9.516 2°35.239 5.5 184 17.2 102320 57
2002-09-30 12:24 51°9.517 2°35.43 8.2 202 17.2 102310 56
2002-09-30 12:25 51°9.519 2°35.705 9.2 192 17.2 102310 57
2002-09-30 12:26 51°9.53 2°35.982 9 193 17.3 102300 51
2002-09-30 12:27 51°9.537 2°36.261 8.5 204 17.4 102300 53
2002-09-30 12:28 51°9.546 2°36.538 8.2 198 17.4 102310 54
2002-09-30 12:29 51°9.555 2°36.821 9.5 197 17.4 102300 55
2002-09-30 12:30 51°9.6 2°37.145 9 196 17.4 102300 52
2002-09-30 12:31 51°9.651 2°37.48 9.2 197 17.4 102300 57
2002-09-30 12:32 51°9.702 2°37.815 9.5 191 17.4 102300 54
2002-09-30 12:33 51°9.747 2°38.151 8.8 191 17.4 102290 49
2002-09-30 12:34 51°9.792 2°38.48 10 203 17.5 102290 50
2002-09-30 12:35 51°9.84 2°38.811 10.6 206 17.6 102300 55
2002-09-30 12:36 51°9.885 2°39.158 9.9 203 17.5 102290 56
2002-09-30 12:37 51°9.928 2°39.494 8.9 203 17.6 102300 57
2002-09-30 12:38 51°10.001 2°39.802 8.5 190 17.5 102290 55
2002-09-30 12:39 51°10.106 2°40.123 7.8 186 17.5 102290 56
2002-09-30 12:40 51°10.199 2°40.423 8.2 197 17.6 102290 52
2002-09-30 12:41 51°10.294 2°40.74 7.8 188 17.6 102290 54
2002-09-30 12:42 51°10.38 2°41.045 8.5 198 17.6 102300 53
2002-09-30 12:43 51°10.478 2°41.367 9.1 194 17.6 102290 52
2002-09-30 12:44 51°10.568 2°41.667 8.2 189 17.6 102290 47
2002-09-30 12:45 51°10.663 2°41.99 7.3 185 17.7 102300 47
2002-09-30 12:46 51°10.751 2°42.299 7.4 194 17.7 102300 49
2002-09-30 12:47 51°10.845 2°42.613 7.1 191 17.8 102300 51
2002-09-30 12:48 51°10.905 2°42.75 3 130 17.8 102300 51
2002-09-30 12:49 51°10.949 2°42.767 4.4 112 17.8 102310 51
2002-09-30 12:50 51°10.964 2°42.763 4.8 111 17.8 102300 53
2002-09-30 12:51 51°10.976 2°42.758 4.5 112 17.8 102300 53
2002-09-30 12:52 51°10.984 2°42.752 4.2 133 17.9 102300 53
2002-09-30 12:53 51°10.989 2°42.745 3.9 133 17.9 102300 50
2002-09-30 12:54 51°10.992 2°42.737 4.7 143 18 102300 51
2002-09-30 12:55 51°10.992 2°42.727 4.7 143 18 102300 50
2002-09-30 12:56 51°10.993 2°42.715 5.5 149 18 102300 53
2002-09-30 12:57 51°10.995 2°42.7 5.2 157 17.9 102290 46
2002-09-30 12:58 51°10.995 2°42.686 5.5 161 17.9 102290 46
2002-09-30 12:59 51°10.994 2°42.671 6 158 18 102290 49
2002-09-30 13:00 51°10.994 2°42.655 5.7 159 18 102290 49
2002-09-30 13:01 51°10.994 2°42.639 5.1 161 17.9 102290 49
2002-09-30 13:02 51°10.993 2°42.624 4.8 161 18 102290 51
2002-09-30 13:03 51°10.992 2°42.607 5.2 171 18 102290 52
2002-09-30 13:04 51°10.991 2°42.59 5.4 180 17.9 102290 53
2002-09-30 13:05 51°10.99 2°42.572 6.1 177 17.9 102290 48
2002-09-30 13:06 51°10.991 2°42.553 6.2 165 17.9 102290 53
2002-09-30 13:07 51°10.992 2°42.534 6.3 170 17.8 102300 46
2002-09-30 13:08 51°10.992 2°42.515 5.3 166 17.9 102300 47
2002-09-30 13:09 51°10.992 2°42.497 5.3 174 18 102300 47
2002-09-30 13:10 51°10.989 2°42.474 5.9 176 18 102290 50
2002-09-30 13:11 51°10.988 2°42.437 2.9 114 18 102240 47
2002-09-30 13:12 51°10.993 2°42.406 6.1 255 18.1 102290 48
2002-09-30 13:13 51°11.002 2°42.378 6 264 18.2 102290 48
2002-09-30 13:14 51°11.009 2°42.353 6.4 284 18.3 102290 49
2002-09-30 13:15 51°11.014 2°42.332 5.5 299 18.4 102290 47
2002-09-30 13:16 51°11.011 2°42.299 5.1 306 18.3 102300 48
2002-09-30 13:17 51°11 2°42.252 5.5 297 18.4 102300 47
2002-09-30 13:18 51°10.983 2°42.198 5.6 284 18.4 102300 46
2002-09-30 13:19 51°10.96 2°42.139 6.1 275 18.5 102300 47
2002-09-30 13:20 51°10.928 2°42.085 6.5 262 18.5 102300 46
2002-09-30 13:21 51°10.889 2°42.041 6.3 263 18.6 102300 46
2002-09-30 13:22 51°10.845 2°42.005 4.9 234 18.6 102300 49
2002-09-30 13:23 51°10.81 2°42 4.7 208 18.6 102300 50
2002-09-30 13:24 51°10.785 2°42.014 6 201 18.4 102300 52
2002-09-30 13:25 51°10.767 2°42.035 5.1 179 18.2 102300 49
2002-09-30 13:26 51°10.754 2°42.057 4.9 188 18.1 102290 48
2002-09-30 13:27 51°10.743 2°42.077 5.2 189 18.1 102290 45
2002-09-30 13:28 51°10.736 2°42.094 6.3 158 18.1 102290 47
2002-09-30 13:29 51°10.734 2°42.113 6.3 160 18.1 102290 50
2002-09-30 13:30 51°10.734 2°42.132 5.5 164 18 102290 48
2002-09-30 13:31 51°10.733 2°42.151 5.7 170 18.1 102290 50
2002-09-30 13:32 51°10.732 2°42.17 6.5 155 18 102290 52
2002-09-30 13:33 51°10.73 2°42.188 5.8 172 18 102290 49
2002-09-30 13:34 51°10.728 2°42.206 6.6 169 18 102290 46
2002-09-30 13:35 51°10.726 2°42.223 6 160 18 102280 48
2002-09-30 13:36 51°10.722 2°42.242 5.5 172 18.1 102290 46
2002-09-30 13:37 51°10.729 2°42.29 5 156 18.1 102290 47
2002-09-30 13:38 51°10.813 2°42.537 8.1 203 18.1 102280 47
2002-09-30 13:39 51°10.897 2°42.854 8.4 200 18.1 102270 49
2002-09-30 13:40 51°10.98 2°43.171 7.4 204 18.1 102280 51
2002-09-30 13:41 51°11.067 2°43.498 8.5 197 18.1 102270 50
2002-09-30 13:42 51°11.155 2°43.811 8.4 191 18.1 102270 46
2002-09-30 13:43 51°11.237 2°44.134 7.3 193 18.2 102270 49
2002-09-30 13:44 51°11.324 2°44.461 8 194 18.1 102270 51
2002-09-30 13:45 51°11.406 2°44.778 9.1 195 18.1 102260 48
2002-09-30 13:46 51°11.488 2°45.099 8.1 195 18.1 102260 50
2002-09-30 13:47 51°11.58 2°45.414 8.6 195 18.1 102260 49
2002-09-30 13:48 51°11.67 2°45.735 6.7 188 18.1 102270 48
2002-09-30 13:49 51°11.765 2°46.056 7 202 18.1 102270 50
2002-09-30 13:50 51°11.852 2°46.377 8.7 199 18.1 102260 46
2002-09-30 13:51 51°11.935 2°46.7 7.1 192 18.2 102260 50
2002-09-30 13:52 51°12.037 2°47.01 7.4 198 18.2 102260 46
2002-09-30 13:53 51°12.136 2°47.318 7.3 201 18.3 102270 46
2002-09-30 13:54 51°12.235 2°47.632 8.7 202 18.2 102260 49
2002-09-30 13:55 51°12.33 2°47.948 7.2 202 18.2 102260 49
2002-09-30 13:56 51°12.425 2°48.264 8.5 209 18.2 102260 50
2002-09-30 13:57 51°12.523 2°48.578 7.8 197 18.2 102250 49
2002-09-30 13:58 51°12.619 2°48.9 7.1 197 18.2 102260 50
2002-09-30 13:59 51°12.717 2°49.215 10.4 204 18.2 102260 52
2002-09-30 14:00 51°12.81 2°49.529 9.1 204 18.1 102250 49
2002-09-30 14:01 51°12.908 2°49.844 9.7 197 18.2 102250 50
2002-09-30 14:02 51°13.007 2°50.161 8 192 18.2 102250 49
2002-09-30 14:03 51°13.101 2°50.479 6.9 194 18.2 102250 47
2002-09-30 14:04 51°13.224 2°50.774 6.4 186 18.2 102250 47
2002-09-30 14:05 51°13.343 2°51.079 7.6 178 18.2 102250 45
2002-09-30 14:06 51°13.464 2°51.377 6 184 18.3 102260 49
2002-09-30 14:07 51°13.585 2°51.674 8.3 200 18.3 102250 48
2002-09-30 14:08 51°13.697 2°51.973 8.8 195 18.3 102250 48
2002-09-30 14:09 51°13.817 2°52.28 7.5 190 18.3 102240 47
2002-09-30 14:10 51°13.931 2°52.58 7.4 190 18.4 102250 45
2002-09-30 14:11 51°14.041 2°52.899 6.8 193 18.4 102250 47
2002-09-30 14:12 51°14.15 2°53.212 5.5 192 18.4 102260 45
2002-09-30 14:13 51°14.249 2°53.528 7.9 205 18.4 102250 49
2002-09-30 14:14 51°14.338 2°53.857 5.6 207 18.5 102250 46
2002-09-30 14:15 51°14.444 2°54.179 10.2 214 18.5 102260 48
2002-09-30 14:16 51°14.472 2°54.503 9 215 18.6 102250 46
2002-09-30 14:17 51°14.444 2°54.82 9.7 222 18.7 102240 45
2002-09-30 14:18 51°14.352 2°55.105 10.2 221 18.8 102240 45
2002-09-30 14:19 51°14.246 2°55.284 6.7 220 18.9 102250 45
2002-09-30 14:20 51°14.159 2°55.4 7.2 227 19 102260 45
2002-09-30 14:21 51°14.076 2°55.461 7.7 238 19 102260 45
2002-09-30 14:22 51°13.993 2°55.513 6.3 236 19.1 102260 44
2002-09-30 14:23 51°13.916 2°55.563 6.4 231 19.1 102260 45
2002-09-30 14:24 51°13.848 2°55.611 6.1 225 19.1 102260 45
2002-09-30 14:25 51°13.785 2°55.653 5.2 229 19.1 102260 45
2002-09-30 14:26 51°13.736 2°55.711 3.7 225 19.2 102260 45
2002-09-30 14:27 51°13.699 2°55.786 4.8 196 19.2 102260 46